createdAt,value
2022-09-23T00:01:39.311Z,6.98
2022-09-23T00:04:28.639Z,6.93
2022-09-23T00:07:05.807Z,6.90
2022-09-23T00:09:44.889Z,6.86
2022-09-23T00:12:18.373Z,6.84
2022-09-23T00:15:17.715Z,6.83
2022-09-23T00:17:58.110Z,6.81
2022-09-23T00:20:50.705Z,6.78
2022-09-23T00:23:32.997Z,6.73
2022-09-23T00:26:24.959Z,6.68
2022-09-23T00:29:15.670Z,6.63
2022-09-23T00:31:54.281Z,6.59
2022-09-23T00:34:25.185Z,6.55
2022-09-23T00:36:56.973Z,6.53
2022-09-23T00:39:38.295Z,6.53
2022-09-23T00:42:13.276Z,6.49
2022-09-23T00:44:43.321Z,6.46
2022-09-23T00:47:39.047Z,6.43
2022-09-23T00:50:23.625Z,6.41
2022-09-23T00:53:04.372Z,6.39
2022-09-23T00:56:07.474Z,6.38
2022-09-23T00:58:45.382Z,6.38
2022-09-23T01:01:17.047Z,6.38
2022-09-23T01:03:48.462Z,6.35
2022-09-23T01:06:16.462Z,6.33
2022-09-23T01:08:51.893Z,6.26
2022-09-23T01:11:59.132Z,6.26
2022-09-23T01:14:45.770Z,6.27
2022-09-23T01:17:49.007Z,6.29
2022-09-23T01:20:38.760Z,6.29
2022-09-23T01:23:34.823Z,6.22
2022-09-23T01:26:31.536Z,6.24
2022-09-23T01:29:35.041Z,6.22
2022-09-23T01:32:36.661Z,6.18
2022-09-23T01:35:38.565Z,6.12
2022-09-23T01:38:51.663Z,6.04
2022-09-23T01:41:53.645Z,5.98
2022-09-23T01:44:46.557Z,5.94
2022-09-23T01:47:34.219Z,5.91
2022-09-23T01:50:46.868Z,5.88
2022-09-23T01:53:44.952Z,5.88
2022-09-23T01:56:26.200Z,5.87
2022-09-23T01:59:19.020Z,5.85
2022-09-23T02:02:09.965Z,5.83
2022-09-23T02:05:09.646Z,5.85
2022-09-23T02:08:12.695Z,5.85
2022-09-23T02:10:53.300Z,5.85
2022-09-23T02:13:40.694Z,5.85
2022-09-23T02:16:28.435Z,5.84
2022-09-23T02:19:05.703Z,5.84
2022-09-23T02:21:45.664Z,5.83
2022-09-23T02:24:22.673Z,5.81
2022-09-23T02:27:29.986Z,5.76
2022-09-23T02:30:30.335Z,5.72
2022-09-23T02:33:26.991Z,5.69
2022-09-23T02:36:32.472Z,5.67
2022-09-23T02:39:14.626Z,5.65
2022-09-23T02:42:02.585Z,5.62
2022-09-23T02:44:34.462Z,5.58
2022-09-23T02:47:03.411Z,5.57
2022-09-23T02:49:40.543Z,5.55
2022-09-23T02:52:28.640Z,5.56
2022-09-23T02:55:00.946Z,5.54
2022-09-23T02:57:34.885Z,5.54
2022-09-23T03:00:14.030Z,5.52
2022-09-23T03:03:25.083Z,5.49
2022-09-23T03:06:33.144Z,5.47
2022-09-23T03:09:25.453Z,5.44
2022-09-23T03:12:24.295Z,5.41
2022-09-23T03:15:25.090Z,5.41
2022-09-23T03:18:09.127Z,5.39
2022-09-23T03:21:35.563Z,5.38
2022-09-23T03:24:23.825Z,5.36
2022-09-23T03:27:00.611Z,5.34
2022-09-23T03:29:37.337Z,5.33
2022-09-23T03:32:29.351Z,5.32
2022-09-23T03:35:10.477Z,5.33
2022-09-23T03:38:00.790Z,5.33
2022-09-23T03:40:35.423Z,5.33
2022-09-23T03:43:11.949Z,5.32
2022-09-23T03:45:42.630Z,5.31
2022-09-23T03:48:12.126Z,5.31
2022-09-23T03:50:45.411Z,5.31
2022-09-23T03:53:39.779Z,5.31
2022-09-23T03:56:11.923Z,5.31
2022-09-23T03:58:40.118Z,5.31
2022-09-23T04:01:22.933Z,5.32
2022-09-23T04:03:56.459Z,5.34
2022-09-23T04:06:35.433Z,5.34
2022-09-23T04:09:35.253Z,5.33
2022-09-23T04:12:32.563Z,5.32
2022-09-23T04:15:11.411Z,5.28
2022-09-23T04:17:40.218Z,5.26
2022-09-23T04:20:20.836Z,5.24
2022-09-23T04:23:00.546Z,5.23
2022-09-23T04:25:34.504Z,5.22
2022-09-23T04:28:12.651Z,5.22
2022-09-23T04:30:51.504Z,5.25
2022-09-23T04:33:40.804Z,5.29
2022-09-23T04:36:10.668Z,5.27
2022-09-23T04:38:45.984Z,5.25
2022-09-23T04:41:32.430Z,5.26
2022-09-23T04:44:09.747Z,5.25
2022-09-23T04:46:39.325Z,5.24
2022-09-23T04:49:10.944Z,5.25
2022-09-23T04:51:43.767Z,5.24
2022-09-23T04:54:32.808Z,5.24
2022-09-23T04:57:21.270Z,5.23
2022-09-23T05:00:00.488Z,5.26
2022-09-23T05:02:34.007Z,5.27
2022-09-23T05:05:05.349Z,5.27
2022-09-23T05:07:36.695Z,5.27
2022-09-23T05:10:06.098Z,5.28
2022-09-23T05:12:42.427Z,5.30
2022-09-23T05:15:16.197Z,5.33
2022-09-23T05:17:49.642Z,5.36
2022-09-23T05:20:19.249Z,5.39
2022-09-23T05:22:50.079Z,5.41
2022-09-23T05:25:27.041Z,5.45
2022-09-23T05:27:55.279Z,5.49
2022-09-23T05:30:26.431Z,5.55
2022-09-23T05:33:20.481Z,5.60
2022-09-23T05:35:51.414Z,5.67
2022-09-23T05:38:32.788Z,5.74
2022-09-23T05:41:09.658Z,5.80
2022-09-23T05:43:41.522Z,5.84
2022-09-23T05:46:34.160Z,5.92
2022-09-23T05:49:05.759Z,5.98
2022-09-23T05:51:38.021Z,6.05
2022-09-23T05:54:10.834Z,6.12
2022-09-23T05:56:53.937Z,6.17
2022-09-23T05:59:22.043Z,6.24
2022-09-23T06:01:54.438Z,6.24
2022-09-23T06:04:24.621Z,6.34
2022-09-23T06:07:00.278Z,6.39
2022-09-23T06:09:39.591Z,6.46
2022-09-23T06:12:15.392Z,6.50
2022-09-23T06:14:44.167Z,6.57
2022-09-23T06:17:14.737Z,6.60
2022-09-23T06:19:42.801Z,6.68
2022-09-23T06:22:12.030Z,6.74
2022-09-23T06:24:40.395Z,6.83
2022-09-23T06:27:22.652Z,6.91
2022-09-23T06:29:52.551Z,6.98
2022-09-23T06:32:28.647Z,7.07
2022-09-23T06:34:59.156Z,7.15
2022-09-23T06:37:28.599Z,7.24
2022-09-23T06:39:58.617Z,7.31
2022-09-23T06:42:40.365Z,7.36
2022-09-23T06:45:16.065Z,7.46
2022-09-23T06:47:50.293Z,7.54
2022-09-23T06:50:21.482Z,7.64
2022-09-23T06:52:56.731Z,7.73
2022-09-23T06:55:28.016Z,7.80
2022-09-23T06:58:02.228Z,7.89
2022-09-23T07:00:30.835Z,7.93
2022-09-23T07:02:59.930Z,8.02
2022-09-23T07:05:28.155Z,8.08
2022-09-23T07:08:00.095Z,8.20
2022-09-23T07:10:29.163Z,8.31
2022-09-23T07:13:01.104Z,8.38
2022-09-23T07:15:29.175Z,8.44
2022-09-23T07:18:00.226Z,8.51
2022-09-23T07:20:28.081Z,8.57
2022-09-23T07:22:56.939Z,8.63
2022-09-23T07:25:25.236Z,8.72
2022-09-23T07:27:59.538Z,8.81
2022-09-23T07:30:27.437Z,8.91
2022-09-23T07:32:55.409Z,8.99
2022-09-23T07:35:23.354Z,9.08
2022-09-23T07:37:52.290Z,9.17
2022-09-23T07:40:20.702Z,9.27
2022-09-23T07:42:48.653Z,9.36
2022-09-23T07:45:22.971Z,9.45
2022-09-23T07:47:51.048Z,9.55
2022-09-23T07:50:19.180Z,9.63
2022-09-23T07:52:47.074Z,9.68
2022-09-23T07:55:18.889Z,9.77
2022-09-23T07:57:52.009Z,9.88
2022-09-23T08:00:21.591Z,9.97
2022-09-23T08:02:53.016Z,10.09
2022-09-23T08:05:23.334Z,10.20
2022-09-23T08:07:51.734Z,10.28
2022-09-23T08:10:20.819Z,10.37
2022-09-23T08:12:49.098Z,10.45
2022-09-23T08:15:17.718Z,10.56
2022-09-23T08:17:46.822Z,10.66
2022-09-23T08:20:34.919Z,10.76
2022-09-23T08:23:03.498Z,10.89
2022-09-23T08:25:34.671Z,11.00
2022-09-23T08:28:03.889Z,11.09
2022-09-23T08:30:32.077Z,11.18
2022-09-23T08:33:00.830Z,11.25
2022-09-23T08:35:29.538Z,11.35
2022-09-23T08:37:58.580Z,11.46
2022-09-23T08:40:28.867Z,11.53
2022-09-23T08:42:57.433Z,11.63
2022-09-23T08:45:27.885Z,11.72
2022-09-23T08:48:06.063Z,11.81
2022-09-23T08:50:43.898Z,11.90
2022-09-23T08:53:22.895Z,11.99
2022-09-23T08:55:53.987Z,12.11
2022-09-23T08:58:49.814Z,12.21
2022-09-23T09:01:49.127Z,12.32
2022-09-23T09:04:28.848Z,12.42
2022-09-23T09:10:22.829Z,12.58
2022-09-23T09:13:07.625Z,12.69
2022-09-23T09:15:46.879Z,12.79
2022-09-23T09:18:21.416Z,12.88
2022-09-23T09:21:14.815Z,12.95
2022-09-23T09:23:57.528Z,13.06
2022-09-23T09:26:33.008Z,13.14
2022-09-23T09:29:23.703Z,13.21
2022-09-23T09:31:54.165Z,13.28
2022-09-23T09:34:31.438Z,13.33
2022-09-23T09:37:09.172Z,13.38
2022-09-23T09:39:37.087Z,13.45
2022-09-23T09:42:13.952Z,13.53
2022-09-23T09:44:59.264Z,13.60
2022-09-23T09:47:30.825Z,13.66
2022-09-23T09:50:11.537Z,13.74
2022-09-23T09:52:42.709Z,13.79
2022-09-23T09:55:13.888Z,13.86
2022-09-23T09:57:46.251Z,13.93
2022-09-23T10:00:31.274Z,13.97
2022-09-23T10:03:30.461Z,14.12
2022-09-23T10:06:00.181Z,14.25
2022-09-23T10:08:35.020Z,14.28
2022-09-23T10:11:17.572Z,14.34
2022-09-23T10:14:07.468Z,14.44
2022-09-23T10:16:35.889Z,14.58
2022-09-23T10:19:11.443Z,14.74
2022-09-23T10:21:41.581Z,14.95
2022-09-23T10:24:24.303Z,15.17
2022-09-23T10:27:01.778Z,15.41
2022-09-23T10:29:33.648Z,15.52
2022-09-23T10:32:24.403Z,15.60
2022-09-23T10:34:54.281Z,15.70
2022-09-23T10:37:49.546Z,15.90
2022-09-23T10:40:42.372Z,16.08
2022-09-23T10:43:58.026Z,16.17
2022-09-23T10:46:38.908Z,16.24
2022-09-23T10:49:31.818Z,16.21
2022-09-23T10:52:28.628Z,16.30
2022-09-23T10:55:11.613Z,16.41
2022-09-23T10:58:08.271Z,16.52
2022-09-23T11:00:46.957Z,16.65
2022-09-23T11:03:27.481Z,16.69
2022-09-23T11:06:07.367Z,16.69
2022-09-23T11:09:09.934Z,16.75
2022-09-23T11:12:10.078Z,16.94
2022-09-23T11:15:07.995Z,17.07
2022-09-23T11:17:51.611Z,17.11
2022-09-23T11:20:32.855Z,17.21
2022-09-23T11:23:34.995Z,17.32
2022-09-23T11:26:17.572Z,17.31
2022-09-23T11:28:57.468Z,17.34
2022-09-23T11:31:28.523Z,17.42
2022-09-23T11:34:28.388Z,17.68
2022-09-23T11:37:14.345Z,18.02
2022-09-23T11:39:47.819Z,18.28
2022-09-23T11:42:24.043Z,18.52
2022-09-23T11:44:59.474Z,18.69
2022-09-23T11:47:42.563Z,18.68
2022-09-23T11:50:20.234Z,18.60
2022-09-23T11:52:53.165Z,18.49
2022-09-23T11:55:27.636Z,18.45
2022-09-23T11:58:02.337Z,18.46
2022-09-23T12:00:36.433Z,18.50
2022-09-23T12:03:23.355Z,18.51
2022-09-23T12:05:56.687Z,18.50
2022-09-23T12:08:33.092Z,18.54
2022-09-23T12:11:16.220Z,18.54
2022-09-23T12:13:49.840Z,18.47
2022-09-23T12:16:53.989Z,18.40
2022-09-23T12:19:40.521Z,18.26
2022-09-23T12:22:36.682Z,18.13
2022-09-23T12:25:26.812Z,18.01
2022-09-23T12:27:59.919Z,17.94
2022-09-23T12:30:32.529Z,17.92
2022-09-23T12:33:22.534Z,17.92
2022-09-23T12:36:07.032Z,17.95
2022-09-23T12:38:53.540Z,18.13
2022-09-23T12:41:29.077Z,18.43
2022-09-23T12:44:23.281Z,18.89
2022-09-23T12:47:21.631Z,19.42
2022-09-23T12:49:50.915Z,19.93
2022-09-23T12:52:19.767Z,20.29
2022-09-23T12:54:49.047Z,20.59
2022-09-23T12:57:35.018Z,20.84
2022-09-23T13:00:15.257Z,21.18
2022-09-23T13:03:12.821Z,21.49
2022-09-23T13:06:19.906Z,21.81
2022-09-23T13:08:49.981Z,22.15
2022-09-23T13:11:29.454Z,22.47
2022-09-23T13:14:01.352Z,22.77
2022-09-23T13:16:56.257Z,23.09
2022-09-23T13:19:27.196Z,23.40
2022-09-23T13:22:09.891Z,23.33
2022-09-23T13:24:43.528Z,23.13
2022-09-23T13:27:20.763Z,23.10
2022-09-23T13:29:59.641Z,23.31
2022-09-23T13:32:51.811Z,23.55
2022-09-23T13:35:36.739Z,23.77
2022-09-23T13:38:26.576Z,23.93
2022-09-23T13:41:11.311Z,24.07
2022-09-23T13:43:43.341Z,24.14
2022-09-23T13:46:17.377Z,24.23
2022-09-23T13:48:47.588Z,24.37
2022-09-23T13:51:22.956Z,24.40
2022-09-23T13:53:55.389Z,24.55
2022-09-23T13:56:25.469Z,24.81
2022-09-23T13:58:55.905Z,25.00
2022-09-23T14:01:35.264Z,25.26
2022-09-23T14:04:03.249Z,25.58
2022-09-23T14:06:31.597Z,25.65
2022-09-23T14:09:01.542Z,25.52
2022-09-23T14:11:35.209Z,25.58
2022-09-23T14:14:07.909Z,25.71
2022-09-23T14:16:39.621Z,25.77
2022-09-23T14:19:17.375Z,25.61
2022-09-23T14:21:49.349Z,25.44
2022-09-23T14:24:29.876Z,25.17
2022-09-23T14:27:06.564Z,24.94
2022-09-23T14:29:41.371Z,24.54
2022-09-23T14:32:17.453Z,24.33
2022-09-23T14:35:00.827Z,24.31
2022-09-23T14:37:58.396Z,24.34
2022-09-23T14:40:29.300Z,24.36
2022-09-23T14:43:22.756Z,24.38
2022-09-23T14:45:57.255Z,24.54
2022-09-23T14:48:29.964Z,24.31
2022-09-23T14:51:03.843Z,24.09
2022-09-23T14:53:43.359Z,24.01
2022-09-23T14:56:17.233Z,23.97
2022-09-23T14:58:56.951Z,24.17
2022-09-23T15:01:31.257Z,24.42
2022-09-23T15:04:11.878Z,24.52
2022-09-23T15:06:47.090Z,24.47
2022-09-23T15:09:23.795Z,24.56
2022-09-23T15:12:02.538Z,24.62
2022-09-23T15:14:38.828Z,24.61
2022-09-23T15:17:30.651Z,24.48
2022-09-23T15:20:02.750Z,24.29
2022-09-23T15:22:30.551Z,24.11
2022-09-23T15:25:20.596Z,23.87
2022-09-23T15:28:05.834Z,23.66
2022-09-23T15:30:36.067Z,23.48
2022-09-23T15:33:04.827Z,23.31
2022-09-23T15:35:32.909Z,23.10
2022-09-23T15:38:03.356Z,22.93
2022-09-23T15:40:33.803Z,22.68
2022-09-23T15:43:20.930Z,22.45
2022-09-23T15:45:53.145Z,22.21
2022-09-23T15:48:25.456Z,21.92
2022-09-23T15:50:54.390Z,21.67
2022-09-23T15:53:28.917Z,21.47
2022-09-23T15:55:58.629Z,21.24
2022-09-23T15:58:27.694Z,21.03
2022-09-23T16:00:57.499Z,20.81
2022-09-23T16:03:28.745Z,20.52
2022-09-23T16:06:01.183Z,20.30
2022-09-23T16:08:32.935Z,20.16
2022-09-23T16:11:01.389Z,20.05
2022-09-23T16:13:31.760Z,19.92
2022-09-23T16:15:59.626Z,19.75
2022-09-23T16:18:27.591Z,19.59
2022-09-23T16:20:55.963Z,19.43
2022-09-23T16:23:34.805Z,19.28
2022-09-23T16:26:15.580Z,19.10
2022-09-23T16:28:44.519Z,18.90
2022-09-23T16:31:16.299Z,18.70
2022-09-23T16:33:48.971Z,18.52
2022-09-23T16:36:27.501Z,18.34
2022-09-23T16:38:59.055Z,18.16
2022-09-23T16:41:34.403Z,18.01
2022-09-23T16:44:04.902Z,17.84
2022-09-23T16:46:34.628Z,17.66
2022-09-23T16:49:03.037Z,17.51
2022-09-23T16:51:38.639Z,17.36
2022-09-23T16:54:11.876Z,17.21
2022-09-23T16:56:45.379Z,17.08
2022-09-23T16:59:15.548Z,16.94
2022-09-23T17:02:02.516Z,16.77
2022-09-23T17:04:32.177Z,16.59
2022-09-23T17:07:00.158Z,16.41
2022-09-23T17:09:30.294Z,16.23
2022-09-23T17:12:12.258Z,16.07
2022-09-23T17:14:41.788Z,15.93
2022-09-23T17:17:10.486Z,15.78
2022-09-23T17:19:41.527Z,15.63
2022-09-23T17:22:10.067Z,15.50
2022-09-23T17:24:38.323Z,15.36
2022-09-23T17:27:06.601Z,15.24
2022-09-23T17:29:34.459Z,15.11
2022-09-23T17:32:05.108Z,14.97
2022-09-23T17:34:33.535Z,14.80
2022-09-23T17:37:02.636Z,14.66
2022-09-23T17:39:31.723Z,14.54
2022-09-23T17:41:59.587Z,14.44
2022-09-23T17:44:28.808Z,14.30
2022-09-23T17:46:58.241Z,14.14
2022-09-23T17:49:25.955Z,14.01
2022-09-23T17:51:53.992Z,13.88
2022-09-23T17:54:22.311Z,13.76
2022-09-23T17:56:50.587Z,13.67
2022-09-23T17:59:18.704Z,13.56
2022-09-23T18:01:46.912Z,13.47
2022-09-23T18:04:14.734Z,13.37
2022-09-23T18:06:45.279Z,13.26
2022-09-23T18:09:17.302Z,13.16
2022-09-23T18:11:46.594Z,13.04
2022-09-23T18:14:20.520Z,12.94
2022-09-23T18:16:54.395Z,12.87
2022-09-23T18:19:24.726Z,12.80
2022-09-23T18:21:56.657Z,12.71
2022-09-23T18:24:32.480Z,12.60
2022-09-23T18:27:02.232Z,12.52
2022-09-23T18:29:30.752Z,12.44
2022-09-23T18:31:59.505Z,12.37
2022-09-23T18:34:28.902Z,12.30
2022-09-23T18:36:57.531Z,12.24
2022-09-23T18:39:25.581Z,12.16
2022-09-23T18:41:55.694Z,12.09
2022-09-23T18:44:26.660Z,12.04
2022-09-23T18:46:54.873Z,11.98
2022-09-23T18:49:41.393Z,11.92
2022-09-23T18:52:12.004Z,11.86
2022-09-23T18:54:40.032Z,11.80
2022-09-23T18:57:09.111Z,11.75
2022-09-23T18:59:40.170Z,11.71
2022-09-23T19:02:08.750Z,11.64
2022-09-23T19:04:36.979Z,11.59
2022-09-23T19:07:06.976Z,11.54
2022-09-23T19:09:35.722Z,11.49
2022-09-23T19:12:03.728Z,11.45
2022-09-23T19:14:31.932Z,11.41
2022-09-23T19:17:00.256Z,11.36
2022-09-23T19:19:29.637Z,11.32
2022-09-23T19:21:57.707Z,11.25
2022-09-23T19:24:25.442Z,11.24
2022-09-23T19:26:54.745Z,11.21
2022-09-23T19:29:23.423Z,11.17
2022-09-23T19:31:51.708Z,11.13
2022-09-23T19:34:29.216Z,11.08
2022-09-23T19:36:58.046Z,11.01
2022-09-23T19:39:30.858Z,11.00
2022-09-23T19:41:59.316Z,10.96
2022-09-23T19:44:28.263Z,10.93
2022-09-23T19:46:57.381Z,10.89
2022-09-23T19:49:26.878Z,10.83
2022-09-23T19:51:56.084Z,10.80
2022-09-23T19:54:27.544Z,10.76
2022-09-23T19:56:58.021Z,10.74
2022-09-23T19:59:26.440Z,10.70
2022-09-23T20:01:54.893Z,10.58
2022-09-23T20:04:23.213Z,10.62
2022-09-23T20:06:51.725Z,10.56
2022-09-23T20:09:20.431Z,10.53
2022-09-23T20:11:49.085Z,10.48
2022-09-23T20:14:20.228Z,10.45
2022-09-23T20:16:48.628Z,10.41
2022-09-23T20:19:16.632Z,10.36
2022-09-23T20:21:45.067Z,10.33
2022-09-23T20:24:13.346Z,10.31
2022-09-23T20:27:01.212Z,10.30
2022-09-23T20:29:29.770Z,10.25
2022-09-23T20:31:58.727Z,10.26
2022-09-23T20:34:32.337Z,10.21
2022-09-23T20:37:01.839Z,10.22
2022-09-23T20:39:30.020Z,10.20
2022-09-23T20:41:59.063Z,10.14
2022-09-23T20:44:27.508Z,10.09
2022-09-23T20:46:56.755Z,10.04
2022-09-23T20:49:24.695Z,10.00
2022-09-23T20:51:55.978Z,9.93
2022-09-23T20:54:24.986Z,9.93
2022-09-23T20:56:53.733Z,9.90
2022-09-23T20:59:23.041Z,9.87
2022-09-23T21:01:55.708Z,9.83
2022-09-23T21:04:25.431Z,9.81
2022-09-23T21:06:54.154Z,9.79
2022-09-23T21:09:33.723Z,9.78
2022-09-23T21:12:02.149Z,9.75
2022-09-23T21:14:32.892Z,9.74
2022-09-23T21:17:02.802Z,9.71
2022-09-23T21:19:31.474Z,9.69
2022-09-23T21:21:59.479Z,9.66
2022-09-23T21:27:24.014Z,9.59
2022-09-23T21:29:52.539Z,9.55
2022-09-23T21:32:21.819Z,9.57
2022-09-23T21:34:50.456Z,9.57
2022-09-23T21:37:18.859Z,9.58
2022-09-23T21:40:07.156Z,9.57
2022-09-23T21:42:35.824Z,9.57
2022-09-23T21:45:05.152Z,9.55
2022-09-23T21:47:32.960Z,9.50
2022-09-23T21:50:02.915Z,9.47
2022-09-23T21:52:31.536Z,9.45
2022-09-23T21:55:00.110Z,9.45
2022-09-23T21:57:31.802Z,9.46
2022-09-23T22:00:09.866Z,9.48
2022-09-23T22:02:40.597Z,9.50
2022-09-23T22:05:11.844Z,9.48
2022-09-23T22:07:42.478Z,9.46
2022-09-23T22:10:13.460Z,9.46
2022-09-23T22:12:41.685Z,9.45
2022-09-23T22:15:10.939Z,9.45
2022-09-23T22:17:39.149Z,9.44
2022-09-23T22:20:08.194Z,9.45
2022-09-23T22:22:37.280Z,9.45
2022-09-23T22:25:06.169Z,9.44
2022-09-23T22:27:54.923Z,9.43
2022-09-23T22:30:41.537Z,9.39
2022-09-23T22:33:15.994Z,9.34
2022-09-23T22:35:43.988Z,9.30
2022-09-23T22:38:11.926Z,9.25
2022-09-23T22:40:43.913Z,9.18
2022-09-23T22:43:12.205Z,9.13
2022-09-23T22:45:48.470Z,9.10
2022-09-23T22:48:16.614Z,9.08
2022-09-23T22:50:45.713Z,9.05
2022-09-23T22:53:14.264Z,9.02
2022-09-23T22:55:45.278Z,8.98
2022-09-23T22:58:31.117Z,8.94
2022-09-23T23:01:00.433Z,8.86
2022-09-23T23:03:34.467Z,8.81
2022-09-23T23:06:04.419Z,8.74
2022-09-23T23:08:33.309Z,8.66
2022-09-23T23:11:11.618Z,8.69
2022-09-23T23:13:41.930Z,8.67
2022-09-23T23:16:13.638Z,8.65
2022-09-23T23:18:44.060Z,8.63
2022-09-23T23:21:19.782Z,8.60
2022-09-23T23:23:50.566Z,8.56
2022-09-23T23:26:29.304Z,8.54
2022-09-23T23:29:05.881Z,8.51
2022-09-23T23:31:38.110Z,8.49
2022-09-23T23:34:11.036Z,8.47
2022-09-23T23:36:40.071Z,8.45
2022-09-23T23:39:08.527Z,8.41
2022-09-23T23:41:42.959Z,8.36
2022-09-23T23:44:18.390Z,8.32
2022-09-23T23:46:49.460Z,8.29
2022-09-23T23:49:17.972Z,8.27
2022-09-23T23:51:46.621Z,8.24
2022-09-23T23:54:15.570Z,8.22
2022-09-23T23:56:44.363Z,8.19
2022-09-23T23:59:20.686Z,8.17
